sensor_id;sensor_type;location;lat;lon;timestamp;temperature;humidity
22771;DHT22;11552;50.786;4.332;2022-10-16T00:02:16;15.10;99.90
22771;DHT22;11552;50.786;4.332;2022-10-16T00:04:42;15.00;99.90
22771;DHT22;11552;50.786;4.332;2022-10-16T00:07:07;14.90;99.90
22771;DHT22;11552;50.786;4.332;2022-10-16T00:09:33;14.80;99.90
22771;DHT22;11552;50.786;4.332;2022-10-16T00:11:58;14.80;99.90
22771;DHT22;11552;50.786;4.332;2022-10-16T00:14:24;14.80;99.90
22771;DHT22;11552;50.786;4.332;2022-10-16T00:16:50;14.80;99.90
22771;DHT22;11552;50.786;4.332;2022-10-16T00:19:15;14.80;99.90
22771;DHT22;11552;50.786;4.332;2022-10-16T00:21:41;14.80;99.90
22771;DHT22;11552;50.786;4.332;2022-10-16T00:24:08;14.70;99.90
22771;DHT22;11552;50.786;4.332;2022-10-16T00:26:35;14.70;99.90
22771;DHT22;11552;50.786;4.332;2022-10-16T00:29:01;14.70;99.90
22771;DHT22;11552;50.786;4.332;2022-10-16T00:31:27;14.70;99.90
22771;DHT22;11552;50.786;4.332;2022-10-16T00:33:53;14.60;99.90
22771;DHT22;11552;50.786;4.332;2022-10-16T00:36:21;14.60;99.90
22771;DHT22;11552;50.786;4.332;2022-10-16T00:38:47;14.50;99.90
22771;DHT22;11552;50.786;4.332;2022-10-16T00:41:16;14.60;99.90
22771;DHT22;11552;50.786;4.332;2022-10-16T00:43:46;14.60;99.90
22771;DHT22;11552;50.786;4.332;2022-10-16T00:48:52;14.50;99.90
22771;DHT22;11552;50.786;4.332;2022-10-16T00:51:21;14.50;99.90
22771;DHT22;11552;50.786;4.332;2022-10-16T00:53:49;14.50;99.90
22771;DHT22;11552;50.786;4.332;2022-10-16T00:56:15;14.50;99.90
22771;DHT22;11552;50.786;4.332;2022-10-16T00:58:41;14.40;99.90
22771;DHT22;11552;50.786;4.332;2022-10-16T01:01:07;14.50;99.90
22771;DHT22;11552;50.786;4.332;2022-10-16T01:03:35;14.50;99.90
22771;DHT22;11552;50.786;4.332;2022-10-16T01:06:24;14.50;99.90
22771;DHT22;11552;50.786;4.332;2022-10-16T01:11:50;14.50;99.90
22771;DHT22;11552;50.786;4.332;2022-10-16T01:14:47;14.50;99.90
22771;DHT22;11552;50.786;4.332;2022-10-16T01:17:34;14.40;99.90
22771;DHT22;11552;50.786;4.332;2022-10-16T01:20:19;14.40;99.90
22771;DHT22;11552;50.786;4.332;2022-10-16T01:28:36;14.40;99.90
22771;DHT22;11552;50.786;4.332;2022-10-16T01:31:04;14.40;99.90
22771;DHT22;11552;50.786;4.332;2022-10-16T01:33:42;14.50;99.90
22771;DHT22;11552;50.786;4.332;2022-10-16T01:36:19;14.50;99.90
22771;DHT22;11552;50.786;4.332;2022-10-16T01:38:49;14.50;99.90
22771;DHT22;11552;50.786;4.332;2022-10-16T01:41:29;14.50;99.90
22771;DHT22;11552;50.786;4.332;2022-10-16T01:44:40;14.60;99.90
22771;DHT22;11552;50.786;4.332;2022-10-16T01:46:58;14.70;99.90
22771;DHT22;11552;50.786;4.332;2022-10-16T01:49:27;14.80;99.90
22771;DHT22;11552;50.786;4.332;2022-10-16T01:51:56;14.70;99.90
22771;DHT22;11552;50.786;4.332;2022-10-16T01:54:27;14.70;99.90
22771;DHT22;11552;50.786;4.332;2022-10-16T01:56:55;14.60;99.90
22771;DHT22;11552;50.786;4.332;2022-10-16T01:59:24;14.50;99.90
22771;DHT22;11552;50.786;4.332;2022-10-16T02:01:54;14.40;99.90
22771;DHT22;11552;50.786;4.332;2022-10-16T02:04:26;14.40;99.90
22771;DHT22;11552;50.786;4.332;2022-10-16T02:06:53;14.40;99.90
22771;DHT22;11552;50.786;4.332;2022-10-16T02:09:19;14.40;99.90
22771;DHT22;11552;50.786;4.332;2022-10-16T02:11:45;14.40;99.90
22771;DHT22;11552;50.786;4.332;2022-10-16T02:14:11;14.50;99.90
22771;DHT22;11552;50.786;4.332;2022-10-16T02:16:43;14.40;99.90
22771;DHT22;11552;50.786;4.332;2022-10-16T02:19:09;14.30;99.90
22771;DHT22;11552;50.786;4.332;2022-10-16T02:21:50;14.30;99.90
22771;DHT22;11552;50.786;4.332;2022-10-16T02:27:05;14.30;99.90
22771;DHT22;11552;50.786;4.332;2022-10-16T02:29:38;14.30;99.90
22771;DHT22;11552;50.786;4.332;2022-10-16T02:32:06;14.40;99.90
22771;DHT22;11552;50.786;4.332;2022-10-16T02:34:34;14.30;99.90
22771;DHT22;11552;50.786;4.332;2022-10-16T02:37:02;14.40;99.90
22771;DHT22;11552;50.786;4.332;2022-10-16T02:39:29;14.30;99.90
22771;DHT22;11552;50.786;4.332;2022-10-16T02:41:55;14.40;99.90
22771;DHT22;11552;50.786;4.332;2022-10-16T02:44:21;14.40;99.90
22771;DHT22;11552;50.786;4.332;2022-10-16T02:46:47;14.40;99.90
22771;DHT22;11552;50.786;4.332;2022-10-16T02:49:12;14.40;99.90
22771;DHT22;11552;50.786;4.332;2022-10-16T02:51:38;14.30;99.90
22771;DHT22;11552;50.786;4.332;2022-10-16T02:54:04;14.30;99.90
22771;DHT22;11552;50.786;4.332;2022-10-16T02:56:30;14.30;99.90
22771;DHT22;11552;50.786;4.332;2022-10-16T02:58:56;14.30;99.90
22771;DHT22;11552;50.786;4.332;2022-10-16T03:01:22;14.40;99.90
22771;DHT22;11552;50.786;4.332;2022-10-16T03:03:47;14.40;99.90
22771;DHT22;11552;50.786;4.332;2022-10-16T03:06:13;14.40;99.90
22771;DHT22;11552;50.786;4.332;2022-10-16T03:08:39;14.40;99.90
22771;DHT22;11552;50.786;4.332;2022-10-16T03:11:05;14.40;99.90
22771;DHT22;11552;50.786;4.332;2022-10-16T03:13:30;14.30;99.90
22771;DHT22;11552;50.786;4.332;2022-10-16T03:15:56;14.40;99.90
22771;DHT22;11552;50.786;4.332;2022-10-16T03:18:21;14.40;99.90
22771;DHT22;11552;50.786;4.332;2022-10-16T03:20:47;14.40;99.90
22771;DHT22;11552;50.786;4.332;2022-10-16T03:23:13;14.40;99.90
22771;DHT22;11552;50.786;4.332;2022-10-16T03:25:39;14.40;99.90
22771;DHT22;11552;50.786;4.332;2022-10-16T03:28:04;14.40;99.90
22771;DHT22;11552;50.786;4.332;2022-10-16T03:30:30;14.40;99.90
22771;DHT22;11552;50.786;4.332;2022-10-16T03:32:56;14.50;99.90
22771;DHT22;11552;50.786;4.332;2022-10-16T03:35:22;14.50;99.90
22771;DHT22;11552;50.786;4.332;2022-10-16T03:37:49;14.50;99.90
22771;DHT22;11552;50.786;4.332;2022-10-16T03:40:15;14.40;99.90
22771;DHT22;11552;50.786;4.332;2022-10-16T03:42:42;14.40;99.90
22771;DHT22;11552;50.786;4.332;2022-10-16T03:45:09;14.30;99.90
22771;DHT22;11552;50.786;4.332;2022-10-16T03:47:34;14.40;99.90
22771;DHT22;11552;50.786;4.332;2022-10-16T03:50:00;14.40;99.90
22771;DHT22;11552;50.786;4.332;2022-10-16T03:52:26;14.40;99.90
22771;DHT22;11552;50.786;4.332;2022-10-16T03:54:51;14.40;99.90
22771;DHT22;11552;50.786;4.332;2022-10-16T03:57:17;14.50;99.90
22771;DHT22;11552;50.786;4.332;2022-10-16T03:59:43;14.40;99.90
22771;DHT22;11552;50.786;4.332;2022-10-16T04:02:09;14.40;99.90
22771;DHT22;11552;50.786;4.332;2022-10-16T04:04:35;14.50;99.90
22771;DHT22;11552;50.786;4.332;2022-10-16T04:07:00;14.40;99.90
22771;DHT22;11552;50.786;4.332;2022-10-16T04:09:26;14.30;99.90
22771;DHT22;11552;50.786;4.332;2022-10-16T04:11:52;14.20;99.90
22771;DHT22;11552;50.786;4.332;2022-10-16T04:14:18;14.30;99.90
22771;DHT22;11552;50.786;4.332;2022-10-16T04:16:44;14.30;99.90
22771;DHT22;11552;50.786;4.332;2022-10-16T04:19:10;14.30;99.90
22771;DHT22;11552;50.786;4.332;2022-10-16T04:21:36;14.30;99.90
22771;DHT22;11552;50.786;4.332;2022-10-16T04:24:02;14.20;99.90
22771;DHT22;11552;50.786;4.332;2022-10-16T04:26:27;14.30;99.90
22771;DHT22;11552;50.786;4.332;2022-10-16T04:28:53;14.20;99.90
22771;DHT22;11552;50.786;4.332;2022-10-16T04:31:19;14.30;99.90
22771;DHT22;11552;50.786;4.332;2022-10-16T04:33:45;14.30;99.90
22771;DHT22;11552;50.786;4.332;2022-10-16T04:36:11;14.20;99.90
22771;DHT22;11552;50.786;4.332;2022-10-16T04:38:37;14.20;99.90
22771;DHT22;11552;50.786;4.332;2022-10-16T04:41:03;14.20;99.90
22771;DHT22;11552;50.786;4.332;2022-10-16T04:43:29;14.20;99.90
22771;DHT22;11552;50.786;4.332;2022-10-16T04:45:55;14.20;99.90
22771;DHT22;11552;50.786;4.332;2022-10-16T04:48:21;14.20;99.90
22771;DHT22;11552;50.786;4.332;2022-10-16T04:50:47;14.20;99.90
22771;DHT22;11552;50.786;4.332;2022-10-16T04:53:13;14.20;99.90
22771;DHT22;11552;50.786;4.332;2022-10-16T04:55:39;14.20;99.90
22771;DHT22;11552;50.786;4.332;2022-10-16T04:58:05;14.20;99.90
22771;DHT22;11552;50.786;4.332;2022-10-16T05:00:30;14.10;99.90
22771;DHT22;11552;50.786;4.332;2022-10-16T05:02:56;14.00;99.90
22771;DHT22;11552;50.786;4.332;2022-10-16T05:05:23;14.00;99.90
22771;DHT22;11552;50.786;4.332;2022-10-16T05:07:49;14.00;99.90
22771;DHT22;11552;50.786;4.332;2022-10-16T05:10:17;14.00;99.90
22771;DHT22;11552;50.786;4.332;2022-10-16T05:12:43;14.00;99.90
22771;DHT22;11552;50.786;4.332;2022-10-16T05:15:09;14.00;99.90
22771;DHT22;11552;50.786;4.332;2022-10-16T05:17:35;13.90;99.90
22771;DHT22;11552;50.786;4.332;2022-10-16T05:20:00;14.00;99.90
22771;DHT22;11552;50.786;4.332;2022-10-16T05:22:26;14.00;99.90
22771;DHT22;11552;50.786;4.332;2022-10-16T05:24:52;14.00;99.90
22771;DHT22;11552;50.786;4.332;2022-10-16T05:27:17;14.10;99.90
22771;DHT22;11552;50.786;4.332;2022-10-16T05:29:47;14.00;99.90
22771;DHT22;11552;50.786;4.332;2022-10-16T05:32:14;14.00;99.90
22771;DHT22;11552;50.786;4.332;2022-10-16T05:34:39;14.00;99.90
22771;DHT22;11552;50.786;4.332;2022-10-16T05:37:05;13.90;99.90
22771;DHT22;11552;50.786;4.332;2022-10-16T05:39:31;13.90;99.90
22771;DHT22;11552;50.786;4.332;2022-10-16T05:41:56;13.90;99.90
22771;DHT22;11552;50.786;4.332;2022-10-16T05:44:22;13.90;99.90
22771;DHT22;11552;50.786;4.332;2022-10-16T05:46:48;13.90;99.90
22771;DHT22;11552;50.786;4.332;2022-10-16T05:49:13;14.10;99.90
22771;DHT22;11552;50.786;4.332;2022-10-16T05:51:39;14.10;99.90
22771;DHT22;11552;50.786;4.332;2022-10-16T05:54:05;14.00;99.90
22771;DHT22;11552;50.786;4.332;2022-10-16T05:56:30;14.00;99.90
22771;DHT22;11552;50.786;4.332;2022-10-16T05:58:56;13.90;99.90
22771;DHT22;11552;50.786;4.332;2022-10-16T06:01:21;13.90;99.90
22771;DHT22;11552;50.786;4.332;2022-10-16T06:03:50;13.80;99.90
22771;DHT22;11552;50.786;4.332;2022-10-16T06:06:21;13.80;99.90
22771;DHT22;11552;50.786;4.332;2022-10-16T06:08:48;13.80;99.90
22771;DHT22;11552;50.786;4.332;2022-10-16T06:11:18;13.80;99.90
22771;DHT22;11552;50.786;4.332;2022-10-16T06:13:45;13.80;99.90
22771;DHT22;11552;50.786;4.332;2022-10-16T06:16:14;13.80;99.90
22771;DHT22;11552;50.786;4.332;2022-10-16T06:18:39;13.80;99.90
22771;DHT22;11552;50.786;4.332;2022-10-16T06:21:14;13.80;99.90
22771;DHT22;11552;50.786;4.332;2022-10-16T06:23:41;13.80;99.90
22771;DHT22;11552;50.786;4.332;2022-10-16T06:26:10;13.80;99.90
22771;DHT22;11552;50.786;4.332;2022-10-16T06:28:36;13.80;99.90
22771;DHT22;11552;50.786;4.332;2022-10-16T06:31:03;13.80;99.90
22771;DHT22;11552;50.786;4.332;2022-10-16T06:33:29;13.80;99.90
22771;DHT22;11552;50.786;4.332;2022-10-16T06:36:14;13.80;99.90
22771;DHT22;11552;50.786;4.332;2022-10-16T06:38:40;13.90;99.90
22771;DHT22;11552;50.786;4.332;2022-10-16T06:41:07;14.00;99.90
22771;DHT22;11552;50.786;4.332;2022-10-16T06:43:35;14.10;99.90
22771;DHT22;11552;50.786;4.332;2022-10-16T06:46:02;14.20;99.90
22771;DHT22;11552;50.786;4.332;2022-10-16T06:48:29;14.40;99.90
22771;DHT22;11552;50.786;4.332;2022-10-16T06:50:59;14.50;99.90
22771;DHT22;11552;50.786;4.332;2022-10-16T06:53:28;14.60;99.90
22771;DHT22;11552;50.786;4.332;2022-10-16T06:55:54;14.60;99.90
22771;DHT22;11552;50.786;4.332;2022-10-16T06:58:20;14.60;99.90
22771;DHT22;11552;50.786;4.332;2022-10-16T07:00:45;14.60;99.90
22771;DHT22;11552;50.786;4.332;2022-10-16T07:03:11;14.60;99.90
22771;DHT22;11552;50.786;4.332;2022-10-16T07:05:41;14.70;99.90
22771;DHT22;11552;50.786;4.332;2022-10-16T07:08:08;14.80;99.90
22771;DHT22;11552;50.786;4.332;2022-10-16T07:10:34;14.80;99.90
22771;DHT22;11552;50.786;4.332;2022-10-16T07:12:59;14.80;99.90
22771;DHT22;11552;50.786;4.332;2022-10-16T07:15:26;14.80;99.90
22771;DHT22;11552;50.786;4.332;2022-10-16T07:17:51;14.80;99.90
22771;DHT22;11552;50.786;4.332;2022-10-16T07:20:17;14.80;99.90
22771;DHT22;11552;50.786;4.332;2022-10-16T07:22:43;14.60;99.90
22771;DHT22;11552;50.786;4.332;2022-10-16T07:25:09;14.60;99.90
22771;DHT22;11552;50.786;4.332;2022-10-16T07:27:34;14.70;99.90
22771;DHT22;11552;50.786;4.332;2022-10-16T07:30:00;14.80;99.90
22771;DHT22;11552;50.786;4.332;2022-10-16T07:32:26;14.80;99.90
22771;DHT22;11552;50.786;4.332;2022-10-16T07:34:52;14.80;99.90
22771;DHT22;11552;50.786;4.332;2022-10-16T07:37:19;14.90;99.90
22771;DHT22;11552;50.786;4.332;2022-10-16T07:39:45;14.80;99.90
22771;DHT22;11552;50.786;4.332;2022-10-16T07:42:10;14.90;99.90
22771;DHT22;11552;50.786;4.332;2022-10-16T07:44:36;15.00;99.90
22771;DHT22;11552;50.786;4.332;2022-10-16T07:47:01;15.00;99.90
22771;DHT22;11552;50.786;4.332;2022-10-16T07:49:28;15.00;99.90
22771;DHT22;11552;50.786;4.332;2022-10-16T07:51:53;15.00;99.90
22771;DHT22;11552;50.786;4.332;2022-10-16T07:54:19;15.10;99.90
22771;DHT22;11552;50.786;4.332;2022-10-16T07:56:44;15.10;99.90
22771;DHT22;11552;50.786;4.332;2022-10-16T07:59:10;15.10;99.90
22771;DHT22;11552;50.786;4.332;2022-10-16T08:01:36;15.10;99.90
22771;DHT22;11552;50.786;4.332;2022-10-16T08:04:01;15.10;99.90
22771;DHT22;11552;50.786;4.332;2022-10-16T08:06:27;15.10;99.90
22771;DHT22;11552;50.786;4.332;2022-10-16T08:08:53;15.20;99.90
22771;DHT22;11552;50.786;4.332;2022-10-16T08:11:18;15.20;99.90
22771;DHT22;11552;50.786;4.332;2022-10-16T08:13:44;15.20;99.90
22771;DHT22;11552;50.786;4.332;2022-10-16T08:16:10;15.30;99.90
22771;DHT22;11552;50.786;4.332;2022-10-16T08:18:38;15.30;99.90
22771;DHT22;11552;50.786;4.332;2022-10-16T08:21:05;15.90;99.90
22771;DHT22;11552;50.786;4.332;2022-10-16T08:23:32;17.00;99.90
22771;DHT22;11552;50.786;4.332;2022-10-16T08:26:07;18.00;99.90
22771;DHT22;11552;50.786;4.332;2022-10-16T08:28:33;19.20;99.90
22771;DHT22;11552;50.786;4.332;2022-10-16T08:31:09;20.40;99.90
22771;DHT22;11552;50.786;4.332;2022-10-16T08:33:36;21.90;99.90
22771;DHT22;11552;50.786;4.332;2022-10-16T08:36:02;22.30;99.90
22771;DHT22;11552;50.786;4.332;2022-10-16T08:38:28;22.80;99.90
22771;DHT22;11552;50.786;4.332;2022-10-16T08:41:02;23.40;99.90
22771;DHT22;11552;50.786;4.332;2022-10-16T08:43:53;24.00;99.90
22771;DHT22;11552;50.786;4.332;2022-10-16T08:49:19;23.80;99.90
22771;DHT22;11552;50.786;4.332;2022-10-16T08:54:05;24.70;99.90
22771;DHT22;11552;50.786;4.332;2022-10-16T08:56:31;26.20;99.90
22771;DHT22;11552;50.786;4.332;2022-10-16T08:58:59;26.20;99.90
22771;DHT22;11552;50.786;4.332;2022-10-16T09:01:44;26.50;98.90
22771;DHT22;11552;50.786;4.332;2022-10-16T09:23:15;28.70;90.00
22771;DHT22;11552;50.786;4.332;2022-10-16T09:25:44;28.40;90.10
22771;DHT22;11552;50.786;4.332;2022-10-16T09:28:11;28.60;89.60
22771;DHT22;11552;50.786;4.332;2022-10-16T09:30:37;29.20;88.00
22771;DHT22;11552;50.786;4.332;2022-10-16T09:33:06;29.20;87.40
22771;DHT22;11552;50.786;4.332;2022-10-16T09:35:37;28.70;87.30
22771;DHT22;11552;50.786;4.332;2022-10-16T09:38:03;27.90;89.60
22771;DHT22;11552;50.786;4.332;2022-10-16T09:40:37;27.40;90.80
22771;DHT22;11552;50.786;4.332;2022-10-16T09:43:25;27.40;90.40
22771;DHT22;11552;50.786;4.332;2022-10-16T09:46:05;27.70;90.20
22771;DHT22;11552;50.786;4.332;2022-10-16T09:48:44;27.60;89.90
22771;DHT22;11552;50.786;4.332;2022-10-16T09:51:29;27.60;90.50
22771;DHT22;11552;50.786;4.332;2022-10-16T09:54:21;27.80;89.20
22771;DHT22;11552;50.786;4.332;2022-10-16T09:56:47;27.40;90.20
22771;DHT22;11552;50.786;4.332;2022-10-16T09:59:21;28.00;88.90
22771;DHT22;11552;50.786;4.332;2022-10-16T10:01:51;27.70;90.10
22771;DHT22;11552;50.786;4.332;2022-10-16T10:04:19;26.80;90.90
22771;DHT22;11552;50.786;4.332;2022-10-16T10:06:55;26.70;91.80
22771;DHT22;11552;50.786;4.332;2022-10-16T10:09:27;26.40;92.70
22771;DHT22;11552;50.786;4.332;2022-10-16T10:12:00;25.60;94.20
22771;DHT22;11552;50.786;4.332;2022-10-16T10:14:31;25.00;94.70
22771;DHT22;11552;50.786;4.332;2022-10-16T10:19:44;23.00;99.90
22771;DHT22;11552;50.786;4.332;2022-10-16T10:30:25;20.70;99.90
22771;DHT22;11552;50.786;4.332;2022-10-16T10:38:29;21.00;99.90
22771;DHT22;11552;50.786;4.332;2022-10-16T10:46:41;20.80;99.90
22771;DHT22;11552;50.786;4.332;2022-10-16T11:00:32;19.70;99.90
22771;DHT22;11552;50.786;4.332;2022-10-16T11:05:58;19.80;99.90
22771;DHT22;11552;50.786;4.332;2022-10-16T11:08:50;19.90;99.90
22771;DHT22;11552;50.786;4.332;2022-10-16T11:11:34;20.00;99.90
22771;DHT22;11552;50.786;4.332;2022-10-16T11:14:24;20.10;99.90
22771;DHT22;11552;50.786;4.332;2022-10-16T11:16:56;20.20;99.90
22771;DHT22;11552;50.786;4.332;2022-10-16T11:19:41;20.10;99.90
22771;DHT22;11552;50.786;4.332;2022-10-16T11:30:33;20.00;99.90
22771;DHT22;11552;50.786;4.332;2022-10-16T11:41:06;20.70;99.90
22771;DHT22;11552;50.786;4.332;2022-10-16T11:43:43;20.70;99.90
22771;DHT22;11552;50.786;4.332;2022-10-16T11:46:19;20.70;99.90
22771;DHT22;11552;50.786;4.332;2022-10-16T11:51:43;20.30;99.90
22771;DHT22;11552;50.786;4.332;2022-10-16T11:56:38;20.40;99.90
22771;DHT22;11552;50.786;4.332;2022-10-16T11:59:30;20.70;99.90
22771;DHT22;11552;50.786;4.332;2022-10-16T12:02:30;21.00;99.90
22771;DHT22;11552;50.786;4.332;2022-10-16T12:05:07;21.10;99.90
22771;DHT22;11552;50.786;4.332;2022-10-16T12:07:51;21.50;99.90
22771;DHT22;11552;50.786;4.332;2022-10-16T12:10:29;21.70;99.90
22771;DHT22;11552;50.786;4.332;2022-10-16T12:13:03;21.80;99.90
22771;DHT22;11552;50.786;4.332;2022-10-16T12:15:31;21.80;99.90
22771;DHT22;11552;50.786;4.332;2022-10-16T12:17:58;21.90;99.90
22771;DHT22;11552;50.786;4.332;2022-10-16T12:20:29;21.90;99.90
22771;DHT22;11552;50.786;4.332;2022-10-16T12:23:00;21.90;99.90
22771;DHT22;11552;50.786;4.332;2022-10-16T12:25:38;21.90;99.90
22771;DHT22;11552;50.786;4.332;2022-10-16T12:30:41;22.10;99.90
22771;DHT22;11552;50.786;4.332;2022-10-16T12:33:24;22.00;99.90
22771;DHT22;11552;50.786;4.332;2022-10-16T12:35:51;22.10;99.90
22771;DHT22;11552;50.786;4.332;2022-10-16T12:38:18;22.10;99.90
22771;DHT22;11552;50.786;4.332;2022-10-16T12:40:56;22.20;99.90
22771;DHT22;11552;50.786;4.332;2022-10-16T12:43:41;22.30;99.90
22771;DHT22;11552;50.786;4.332;2022-10-16T12:48:41;22.70;99.90
22771;DHT22;11552;50.786;4.332;2022-10-16T12:56:51;22.70;99.90
22771;DHT22;11552;50.786;4.332;2022-10-16T12:59:41;22.60;99.90
22771;DHT22;11552;50.786;4.332;2022-10-16T13:02:22;22.50;99.90
22771;DHT22;11552;50.786;4.332;2022-10-16T13:05:26;22.50;99.90
22771;DHT22;11552;50.786;4.332;2022-10-16T13:19:05;22.10;99.90
22771;DHT22;11552;50.786;4.332;2022-10-16T13:21:32;22.20;99.90
22771;DHT22;11552;50.786;4.332;2022-10-16T13:29:31;21.80;99.90
22771;DHT22;11552;50.786;4.332;2022-10-16T13:31:59;21.80;99.90
22771;DHT22;11552;50.786;4.332;2022-10-16T13:34:25;21.80;99.90
22771;DHT22;11552;50.786;4.332;2022-10-16T13:36:53;22.10;99.90
22771;DHT22;11552;50.786;4.332;2022-10-16T13:39:23;22.40;99.90
22771;DHT22;11552;50.786;4.332;2022-10-16T13:42:14;22.60;99.90
22771;DHT22;11552;50.786;4.332;2022-10-16T13:44:46;22.50;99.90
22771;DHT22;11552;50.786;4.332;2022-10-16T13:47:21;22.10;99.90
22771;DHT22;11552;50.786;4.332;2022-10-16T13:50:18;21.80;99.90
22771;DHT22;11552;50.786;4.332;2022-10-16T13:52:44;21.40;99.90
22771;DHT22;11552;50.786;4.332;2022-10-16T13:55:14;21.40;99.90
22771;DHT22;11552;50.786;4.332;2022-10-16T13:57:40;21.50;99.90
22771;DHT22;11552;50.786;4.332;2022-10-16T14:00:28;21.50;99.90
22771;DHT22;11552;50.786;4.332;2022-10-16T14:03:13;21.70;99.90
22771;DHT22;11552;50.786;4.332;2022-10-16T14:08:17;21.80;99.90
22771;DHT22;11552;50.786;4.332;2022-10-16T14:10:46;21.70;99.90
22771;DHT22;11552;50.786;4.332;2022-10-16T14:13:19;21.70;99.90
22771;DHT22;11552;50.786;4.332;2022-10-16T14:15:46;21.60;99.90
22771;DHT22;11552;50.786;4.332;2022-10-16T14:18:20;21.60;99.90
22771;DHT22;11552;50.786;4.332;2022-10-16T14:20:46;21.80;99.90
22771;DHT22;11552;50.786;4.332;2022-10-16T14:23:23;21.80;99.90
22771;DHT22;11552;50.786;4.332;2022-10-16T14:25:53;21.80;99.90
22771;DHT22;11552;50.786;4.332;2022-10-16T14:28:21;21.70;99.90
22771;DHT22;11552;50.786;4.332;2022-10-16T14:30:56;21.70;99.90
22771;DHT22;11552;50.786;4.332;2022-10-16T14:33:32;21.80;99.90
22771;DHT22;11552;50.786;4.332;2022-10-16T14:36:06;21.70;99.90
22771;DHT22;11552;50.786;4.332;2022-10-16T14:38:47;21.70;99.90
22771;DHT22;11552;50.786;4.332;2022-10-16T14:41:15;21.70;99.90
22771;DHT22;11552;50.786;4.332;2022-10-16T14:43:42;21.70;99.90
22771;DHT22;11552;50.786;4.332;2022-10-16T14:46:17;21.70;99.90
22771;DHT22;11552;50.786;4.332;2022-10-16T14:48:46;21.60;99.90
22771;DHT22;11552;50.786;4.332;2022-10-16T14:51:16;21.40;99.90
22771;DHT22;11552;50.786;4.332;2022-10-16T14:53:42;21.40;99.90
22771;DHT22;11552;50.786;4.332;2022-10-16T14:56:29;21.30;99.90
22771;DHT22;11552;50.786;4.332;2022-10-16T14:58:55;21.10;99.90
22771;DHT22;11552;50.786;4.332;2022-10-16T15:01:21;21.10;99.90
22771;DHT22;11552;50.786;4.332;2022-10-16T15:03:47;21.10;99.90
22771;DHT22;11552;50.786;4.332;2022-10-16T15:06:16;21.10;99.90
22771;DHT22;11552;50.786;4.332;2022-10-16T15:08:42;21.20;99.90
22771;DHT22;11552;50.786;4.332;2022-10-16T15:11:15;21.20;99.90
22771;DHT22;11552;50.786;4.332;2022-10-16T15:13:41;21.30;99.90
22771;DHT22;11552;50.786;4.332;2022-10-16T15:16:15;21.20;99.90
22771;DHT22;11552;50.786;4.332;2022-10-16T15:18:41;21.10;99.90
22771;DHT22;11552;50.786;4.332;2022-10-16T15:21:07;21.10;99.90
22771;DHT22;11552;50.786;4.332;2022-10-16T15:23:33;21.00;99.90
22771;DHT22;11552;50.786;4.332;2022-10-16T15:25:59;20.90;99.90
22771;DHT22;11552;50.786;4.332;2022-10-16T15:28:25;20.80;99.90
22771;DHT22;11552;50.786;4.332;2022-10-16T15:30:56;20.40;99.90
22771;DHT22;11552;50.786;4.332;2022-10-16T15:33:27;20.10;99.90
22771;DHT22;11552;50.786;4.332;2022-10-16T15:35:54;19.80;99.90
22771;DHT22;11552;50.786;4.332;2022-10-16T15:38:21;19.80;99.90
22771;DHT22;11552;50.786;4.332;2022-10-16T15:40:48;19.90;99.90
22771;DHT22;11552;50.786;4.332;2022-10-16T15:43:14;20.00;99.90
22771;DHT22;11552;50.786;4.332;2022-10-16T15:45:40;20.10;99.90
22771;DHT22;11552;50.786;4.332;2022-10-16T15:48:06;20.00;99.90
22771;DHT22;11552;50.786;4.332;2022-10-16T15:50:32;20.00;99.90
22771;DHT22;11552;50.786;4.332;2022-10-16T15:52:58;19.70;99.90
22771;DHT22;11552;50.786;4.332;2022-10-16T15:55:24;19.60;99.90
22771;DHT22;11552;50.786;4.332;2022-10-16T15:57:49;19.60;99.90
22771;DHT22;11552;50.786;4.332;2022-10-16T16:00:17;19.60;99.90
22771;DHT22;11552;50.786;4.332;2022-10-16T16:02:44;19.50;99.90
22771;DHT22;11552;50.786;4.332;2022-10-16T16:05:14;19.60;99.90
22771;DHT22;11552;50.786;4.332;2022-10-16T16:07:40;19.70;99.90
22771;DHT22;11552;50.786;4.332;2022-10-16T16:10:09;19.40;99.90
22771;DHT22;11552;50.786;4.332;2022-10-16T16:12:35;19.30;99.90
22771;DHT22;11552;50.786;4.332;2022-10-16T16:15:03;19.30;99.90
22771;DHT22;11552;50.786;4.332;2022-10-16T16:17:30;19.20;99.90
22771;DHT22;11552;50.786;4.332;2022-10-16T16:19:56;19.30;99.90
22771;DHT22;11552;50.786;4.332;2022-10-16T16:22:22;19.40;99.90
22771;DHT22;11552;50.786;4.332;2022-10-16T16:24:48;19.20;99.90
22771;DHT22;11552;50.786;4.332;2022-10-16T16:27:13;19.30;99.90
22771;DHT22;11552;50.786;4.332;2022-10-16T16:29:39;19.20;99.90
22771;DHT22;11552;50.786;4.332;2022-10-16T16:32:05;19.10;99.90
22771;DHT22;11552;50.786;4.332;2022-10-16T16:34:31;19.10;99.90
22771;DHT22;11552;50.786;4.332;2022-10-16T16:36:57;19.00;99.90
22771;DHT22;11552;50.786;4.332;2022-10-16T16:39:23;18.90;99.90
22771;DHT22;11552;50.786;4.332;2022-10-16T16:41:49;18.80;99.90
22771;DHT22;11552;50.786;4.332;2022-10-16T16:44:16;18.30;99.90
22771;DHT22;11552;50.786;4.332;2022-10-16T16:46:42;18.00;99.90
22771;DHT22;11552;50.786;4.332;2022-10-16T16:49:11;18.10;99.90
22771;DHT22;11552;50.786;4.332;2022-10-16T16:51:37;18.30;99.90
22771;DHT22;11552;50.786;4.332;2022-10-16T16:54:03;18.30;99.90
22771;DHT22;11552;50.786;4.332;2022-10-16T16:56:29;18.50;99.90
22771;DHT22;11552;50.786;4.332;2022-10-16T16:58:56;18.60;99.90
22771;DHT22;11552;50.786;4.332;2022-10-16T17:01:24;18.40;99.90
22771;DHT22;11552;50.786;4.332;2022-10-16T17:03:52;18.30;99.90
22771;DHT22;11552;50.786;4.332;2022-10-16T17:06:23;18.30;99.90
22771;DHT22;11552;50.786;4.332;2022-10-16T17:08:49;18.40;99.90
22771;DHT22;11552;50.786;4.332;2022-10-16T17:11:22;18.30;99.90
22771;DHT22;11552;50.786;4.332;2022-10-16T17:13:49;18.20;99.90
22771;DHT22;11552;50.786;4.332;2022-10-16T17:16:15;18.20;99.90
22771;DHT22;11552;50.786;4.332;2022-10-16T17:18:41;18.20;99.90
22771;DHT22;11552;50.786;4.332;2022-10-16T17:21:08;18.20;99.90
22771;DHT22;11552;50.786;4.332;2022-10-16T17:23:35;18.30;99.90
22771;DHT22;11552;50.786;4.332;2022-10-16T17:26:05;18.30;99.90
22771;DHT22;11552;50.786;4.332;2022-10-16T17:28:31;18.30;99.90
22771;DHT22;11552;50.786;4.332;2022-10-16T17:31:13;18.10;99.90
22771;DHT22;11552;50.786;4.332;2022-10-16T17:33:39;18.10;99.90
22771;DHT22;11552;50.786;4.332;2022-10-16T17:36:06;18.00;99.90
22771;DHT22;11552;50.786;4.332;2022-10-16T17:38:32;17.90;99.90
22771;DHT22;11552;50.786;4.332;2022-10-16T17:40:58;17.90;99.90
22771;DHT22;11552;50.786;4.332;2022-10-16T17:43:34;18.00;99.90
22771;DHT22;11552;50.786;4.332;2022-10-16T17:46:01;17.70;99.90
22771;DHT22;11552;50.786;4.332;2022-10-16T17:48:27;17.60;99.90
22771;DHT22;11552;50.786;4.332;2022-10-16T17:50:53;17.50;99.90